Time,TemperatureF,DewpointF,PressureIn,WindDirection,WindDirectionDegrees,WindSpeedMPH,WindSpeedGustMPH,Humidity,HourlyPrecipIn,Conditions,Clouds,dailyrainin,SoftwareType,DateUTC
2013-06-08 00:02:00,74.1,73.2,29.99,SSW,213,0.0,2.0,97,0.00,,,0.05,meteohub,2013-06-08 04:02:00,
2013-06-08 00:18:00,74.5,73.9,29.99,SSW,197,0.0,4.0,98,0.00,,,0.05,meteohub,2013-06-08 04:18:00,
2013-06-08 00:23:00,74.7,74.1,29.99,SSW,209,2.0,5.0,98,0.00,,,0.05,meteohub,2013-06-08 04:23:00,
2013-06-08 00:28:00,74.7,73.8,30.00,SSW,206,0.0,6.0,97,0.00,,,0.05,meteohub,2013-06-08 04:28:00,
2013-06-08 00:33:00,74.8,73.9,29.99,SW,221,2.0,6.0,97,0.00,,,0.05,meteohub,2013-06-08 04:33:00,
2013-06-08 00:38:00,74.8,73.9,30.00,South,169,4.0,7.0,97,0.00,,,0.05,meteohub,2013-06-08 04:38:00,
2013-06-08 00:43:00,74.8,73.9,30.00,South,188,4.0,7.0,97,0.00,,,0.05,meteohub,2013-06-08 04:43:00,
2013-06-08 00:48:00,74.8,73.6,30.00,SSW,203,0.0,7.0,96,0.00,,,0.05,meteohub,2013-06-08 04:48:00,
2013-06-08 00:53:00,74.8,73.6,30.00,South,175,0.0,7.0,96,0.00,,,0.05,meteohub,2013-06-08 04:53:00,
2013-06-08 00:58:00,74.8,73.6,30.00,SW,217,0.0,7.0,96,0.00,,,0.05,meteohub,2013-06-08 04:58:00,
2013-06-08 01:03:00,74.8,73.6,29.99,SSW,196,0.0,7.0,96,0.00,,,0.05,meteohub,2013-06-08 05:03:00,
2013-06-08 01:14:00,75.0,73.8,29.99,South,180,0.0,6.0,96,0.00,,,0.05,meteohub,2013-06-08 05:14:00,
2013-06-08 01:19:00,75.0,73.8,29.99,SSW,202,0.0,5.0,96,0.00,,,0.05,meteohub,2013-06-08 05:19:00,
2013-06-08 01:24:00,75.0,73.8,29.99,SSW,207,0.0,4.0,96,0.00,,,0.05,meteohub,2013-06-08 05:24:00,
2013-06-08 01:29:00,75.2,73.9,29.99,SW,215,0.0,4.0,96,0.00,,,0.05,meteohub,2013-06-08 05:29:00,
2013-06-08 01:34:00,75.2,73.9,29.99,South,173,1.0,4.0,96,0.00,,,0.05,meteohub,2013-06-08 05:34:00,
2013-06-08 01:39:00,75.2,73.9,29.99,South,181,0.0,4.0,96,0.00,,,0.05,meteohub,2013-06-08 05:39:00,
2013-06-08 01:44:00,75.0,73.8,29.99,South,190,0.0,3.0,96,0.00,,,0.05,meteohub,2013-06-08 05:44:00,
2013-06-08 01:49:00,75.0,73.8,29.98,South,177,0.0,3.0,96,0.00,,,0.05,meteohub,2013-06-08 05:49:00,
2013-06-08 01:54:00,75.0,73.8,29.98,South,177,0.0,3.0,96,0.00,,,0.05,meteohub,2013-06-08 05:54:00,
2013-06-08 01:59:00,75.0,73.8,29.98,South,177,0.0,2.0,96,0.00,,,0.05,meteohub,2013-06-08 05:59:00,
2013-06-08 02:04:00,74.8,73.6,29.98,South,177,0.0,1.0,96,0.00,,,0.05,meteohub,2013-06-08 06:04:00,
2013-06-08 02:09:00,74.8,73.6,29.98,South,177,0.0,0.0,96,0.00,,,0.05,meteohub,2013-06-08 06:09:00,
2013-06-08 02:14:00,74.8,73.6,29.98,South,177,0.0,0.0,96,0.00,,,0.05,meteohub,2013-06-08 06:14:00,
2013-06-08 02:19:00,74.7,73.4,29.98,South,177,0.0,0.0,96,0.00,,,0.05,meteohub,2013-06-08 06:19:00,
2013-06-08 02:24:00,74.7,73.4,29.98,South,177,0.0,0.0,96,0.00,,,0.05,meteohub,2013-06-08 06:24:00,
2013-06-08 02:29:00,74.7,73.4,29.98,South,178,0.0,0.0,96,0.00,,,0.05,meteohub,2013-06-08 06:29:00,
2013-06-08 02:34:00,74.7,73.8,29.98,WNW,296,1.0,1.0,97,0.00,,,0.05,meteohub,2013-06-08 06:34:00,
2013-06-08 02:39:00,74.7,73.8,29.98,WNW,296,0.0,2.0,97,0.00,,,0.05,meteohub,2013-06-08 06:39:00,
2013-06-08 02:44:00,74.7,73.8,29.98,WNW,296,0.0,2.0,97,0.00,,,0.05,meteohub,2013-06-08 06:44:00,
2013-06-08 02:49:00,74.7,73.8,29.98,WNW,296,1.0,2.0,97,0.00,,,0.05,meteohub,2013-06-08 06:49:00,
2013-06-08 02:54:00,74.7,73.8,29.98,NW,311,0.0,2.0,97,0.00,,,0.05,meteohub,2013-06-08 06:54:00,
2013-06-08 02:59:00,74.5,73.6,29.98,NW,311,0.0,2.0,97,0.00,,,0.05,meteohub,2013-06-08 06:59:00,
2013-06-08 03:04:00,74.5,73.6,29.97,NW,311,0.0,2.0,97,0.00,,,0.05,meteohub,2013-06-08 07:04:00,
2013-06-08 03:09:00,74.5,73.6,29.97,NW,311,0.0,2.0,97,0.00,,,0.05,meteohub,2013-06-08 07:09:00,
2013-06-08 03:14:00,74.3,73.4,29.97,NW,311,0.0,1.0,97,0.00,,,0.05,meteohub,2013-06-08 07:14:00,
2013-06-08 03:19:00,74.3,73.4,29.97,NW,311,0.0,1.0,97,0.00,,,0.05,meteohub,2013-06-08 07:19:00,
2013-06-08 03:24:00,74.3,73.4,29.97,NW,311,0.0,1.0,97,0.00,,,0.05,meteohub,2013-06-08 07:24:00,
2013-06-08 03:29:00,74.3,73.4,29.97,NW,312,0.0,1.0,97,0.00,,,0.05,meteohub,2013-06-08 07:29:00,
2013-06-08 03:34:00,74.1,73.2,29.97,NW,312,0.0,1.0,97,0.00,,,0.05,meteohub,2013-06-08 07:34:00,
2013-06-08 03:39:00,74.1,73.2,29.97,NW,312,0.0,1.0,97,0.00,,,0.05,meteohub,2013-06-08 07:39:00,
2013-06-08 03:44:00,74.1,73.2,29.97,NW,312,0.0,1.0,97,0.00,,,0.05,meteohub,2013-06-08 07:44:00,
2013-06-08 03:49:00,73.9,73.0,29.97,NW,312,0.0,1.0,97,0.00,,,0.05,meteohub,2013-06-08 07:49:00,
2013-06-08 03:54:00,73.9,73.0,29.97,NW,312,0.0,0.0,97,0.00,,,0.05,meteohub,2013-06-08 07:54:00,
2013-06-08 03:59:00,73.9,73.0,29.97,NW,312,0.0,0.0,97,0.00,,,0.05,meteohub,2013-06-08 07:59:00,
2013-06-08 04:04:00,73.9,73.0,29.97,NW,312,0.0,0.0,97,0.00,,,0.05,meteohub,2013-06-08 08:04:00,
2013-06-08 04:09:00,73.9,73.4,29.97,NW,312,0.0,0.0,98,0.00,,,0.05,meteohub,2013-06-08 08:09:00,
2013-06-08 04:14:00,73.9,73.0,29.97,NW,312,0.0,0.0,97,0.00,,,0.05,meteohub,2013-06-08 08:14:00,
2013-06-08 04:19:00,73.9,73.4,29.97,NW,312,0.0,0.0,98,0.00,,,0.05,meteohub,2013-06-08 08:19:00,
2013-06-08 04:24:00,73.8,73.2,29.97,NW,312,0.0,0.0,98,0.00,,,0.05,meteohub,2013-06-08 08:24:00,
2013-06-08 04:29:00,73.8,73.2,29.97,NW,313,0.0,0.0,98,0.00,,,0.05,meteohub,2013-06-08 08:29:00,
2013-06-08 04:34:00,73.8,73.2,29.97,NW,312,0.0,0.0,98,0.00,,,0.05,meteohub,2013-06-08 08:34:00,
2013-06-08 04:39:00,73.8,73.2,29.97,NW,312,0.0,0.0,98,0.00,,,0.05,meteohub,2013-06-08 08:39:00,
2013-06-08 04:45:00,73.8,73.2,29.97,NW,312,0.0,0.0,98,0.00,,,0.05,meteohub,2013-06-08 08:45:00,
2013-06-08 04:50:00,73.8,73.2,29.98,NW,312,0.0,0.0,98,0.00,,,0.05,meteohub,2013-06-08 08:50:00,
2013-06-08 04:55:00,73.8,73.2,29.98,NW,312,0.0,0.0,98,0.00,,,0.05,meteohub,2013-06-08 08:55:00,
2013-06-08 05:00:00,73.6,73.0,29.98,NW,312,0.0,0.0,98,0.00,,,0.05,meteohub,2013-06-08 09:00:00,
2013-06-08 05:05:00,73.6,73.0,29.98,NW,312,0.0,0.0,98,0.00,,,0.05,meteohub,2013-06-08 09:05:00,
2013-06-08 05:10:00,73.6,73.0,29.99,NW,312,0.0,0.0,98,0.00,,,0.05,meteohub,2013-06-08 09:10:00,
2013-06-08 05:15:00,73.6,73.0,29.99,NW,312,0.0,0.0,98,0.00,,,0.05,meteohub,2013-06-08 09:15:00,
2013-06-08 05:20:00,73.8,73.2,29.99,NW,312,0.0,0.0,98,0.00,,,0.05,meteohub,2013-06-08 09:20:00,
2013-06-08 05:25:00,73.9,73.4,29.99,NW,312,0.0,0.0,98,0.00,,,0.05,meteohub,2013-06-08 09:25:00,
2013-06-08 05:30:00,73.9,73.4,29.99,NW,312,0.0,0.0,98,0.00,,,0.05,meteohub,2013-06-08 09:30:00,
2013-06-08 05:35:00,74.1,73.6,29.99,NW,312,0.0,0.0,98,0.00,,,0.05,meteohub,2013-06-08 09:35:00,
2013-06-08 05:40:00,74.1,73.6,30.00,South,171,0.0,0.0,98,0.00,,,0.05,meteohub,2013-06-08 09:40:00,
2013-06-08 05:45:00,74.1,73.6,29.99,South,185,0.0,0.0,98,0.00,,,0.05,meteohub,2013-06-08 09:45:00,
2013-06-08 05:50:00,74.1,73.6,29.99,South,184,0.0,0.0,98,0.00,,,0.05,meteohub,2013-06-08 09:50:00,
2013-06-08 05:55:00,74.1,73.6,30.00,South,184,0.0,0.0,98,0.00,,,0.05,meteohub,2013-06-08 09:55:00,
2013-06-08 06:00:00,74.1,73.6,30.00,South,184,0.0,0.0,98,0.00,,,0.05,meteohub,2013-06-08 10:00:00,
2013-06-08 06:05:00,74.1,73.6,30.00,South,184,0.0,0.0,98,0.00,,,0.05,meteohub,2013-06-08 10:05:00,
2013-06-08 06:10:00,74.1,73.6,30.00,South,184,0.0,0.0,98,0.00,,,0.05,meteohub,2013-06-08 10:10:00,
2013-06-08 06:15:00,74.1,73.6,30.00,South,184,0.0,0.0,98,0.00,,,0.05,meteohub,2013-06-08 10:15:00,
2013-06-08 06:20:00,73.9,73.4,30.00,South,184,0.0,0.0,98,0.00,,,0.05,meteohub,2013-06-08 10:20:00,
2013-06-08 06:25:00,73.9,73.4,30.00,South,184,0.0,0.0,98,0.00,,,0.05,meteohub,2013-06-08 10:25:00,
2013-06-08 06:30:00,73.9,73.4,30.01,South,184,0.0,0.0,98,0.00,,,0.05,meteohub,2013-06-08 10:30:00,
2013-06-08 06:35:00,73.9,73.4,30.01,South,184,0.0,0.0,98,0.00,,,0.05,meteohub,2013-06-08 10:35:00,
2013-06-08 06:40:00,73.9,73.4,30.01,South,184,0.0,0.0,98,0.00,,,0.05,meteohub,2013-06-08 10:40:00,
2013-06-08 06:45:00,73.8,73.2,30.01,South,184,0.0,0.0,98,0.00,,,0.05,meteohub,2013-06-08 10:45:00,
2013-06-08 06:50:00,73.8,73.2,30.01,South,184,0.0,0.0,98,0.00,,,0.05,meteohub,2013-06-08 10:50:00,
2013-06-08 06:55:00,73.9,73.4,30.01,South,184,0.0,0.0,98,0.00,,,0.05,meteohub,2013-06-08 10:55:00,
2013-06-08 07:00:00,73.9,73.4,30.02,South,184,0.0,0.0,98,0.00,,,0.05,meteohub,2013-06-08 11:00:00,
2013-06-08 07:05:00,73.8,73.2,30.02,South,184,0.0,0.0,98,0.00,,,0.05,meteohub,2013-06-08 11:05:00,
2013-06-08 07:10:00,73.8,73.2,30.02,South,184,0.0,0.0,98,0.00,,,0.05,meteohub,2013-06-08 11:10:00,
2013-06-08 07:15:00,73.9,73.4,30.02,South,184,0.0,0.0,98,0.00,,,0.05,meteohub,2013-06-08 11:15:00,
2013-06-08 07:20:00,73.9,73.4,30.02,South,184,0.0,0.0,98,0.00,,,0.05,meteohub,2013-06-08 11:20:00,
2013-06-08 07:25:00,74.1,73.6,30.02,South,184,0.0,0.0,98,0.00,,,0.05,meteohub,2013-06-08 11:25:00,
2013-06-08 07:30:00,74.3,73.8,30.03,South,184,0.0,0.0,98,0.00,,,0.05,meteohub,2013-06-08 11:30:00,
2013-06-08 07:35:00,74.3,73.8,30.03,South,184,0.0,0.0,98,0.00,,,0.05,meteohub,2013-06-08 11:35:00,
2013-06-08 07:40:00,74.5,73.9,30.03,South,184,0.0,0.0,98,0.00,,,0.05,meteohub,2013-06-08 11:40:00,
2013-06-08 07:45:00,74.5,73.9,30.03,South,184,0.0,0.0,98,0.00,,,0.05,meteohub,2013-06-08 11:45:00,
2013-06-08 07:50:00,74.7,74.1,30.03,South,184,0.0,0.0,98,0.00,,,0.05,meteohub,2013-06-08 11:50:00,
2013-06-08 07:55:00,74.8,74.3,30.04,South,184,0.0,0.0,98,0.00,,,0.05,meteohub,2013-06-08 11:55:00,
2013-06-08 08:00:00,75.2,74.7,30.03,South,189,0.0,0.0,98,0.00,,,0.05,meteohub,2013-06-08 12:00:00,
2013-06-08 08:05:00,75.6,74.7,30.04,South,190,0.0,0.0,97,0.00,,,0.05,meteohub,2013-06-08 12:05:00,
2013-06-08 08:10:00,75.9,75.0,30.04,South,172,0.0,0.0,97,0.00,,,0.05,meteohub,2013-06-08 12:10:00,
2013-06-08 08:15:00,76.1,74.8,30.04,SE,139,0.0,0.0,96,0.00,,,0.05,meteohub,2013-06-08 12:15:00,
2013-06-08 08:20:00,76.5,74.8,30.04,SE,142,0.0,0.0,95,0.00,,,0.05,meteohub,2013-06-08 12:20:00,
2013-06-08 08:25:00,76.5,74.7,30.04,South,175,0.0,0.0,94,0.00,,,0.05,meteohub,2013-06-08 12:25:00,
2013-06-08 08:30:00,76.5,74.7,30.05,South,176,0.0,4.0,94,0.00,,,0.05,meteohub,2013-06-08 12:30:00,
2013-06-08 08:35:00,76.6,74.8,30.05,SSE,150,0.0,4.0,94,0.00,,,0.05,meteohub,2013-06-08 12:35:00,
2013-06-08 08:40:00,76.6,74.8,30.05,SSE,150,0.0,4.0,94,0.00,,,0.05,meteohub,2013-06-08 12:40:00,
2013-06-08 08:46:00,76.6,75.0,30.05,SSE,149,0.0,3.0,95,0.00,,,0.05,meteohub,2013-06-08 12:46:00,
2013-06-08 08:51:00,76.6,75.0,30.05,SSE,155,0.0,1.0,95,0.00,,,0.05,meteohub,2013-06-08 12:51:00,
2013-06-08 08:56:00,76.6,75.0,30.05,SE,135,0.0,2.0,95,0.00,,,0.05,meteohub,2013-06-08 12:56:00,
2013-06-08 09:01:00,76.6,75.0,30.06,SE,132,0.0,2.0,95,0.00,,,0.05,meteohub,2013-06-08 13:01:00,
2013-06-08 09:06:00,76.6,75.0,30.06,SSE,155,0.0,2.0,95,0.01,,,0.06,meteohub,2013-06-08 13:06:00,
2013-06-08 09:11:00,76.8,75.6,30.06,South,175,2.0,4.0,96,0.06,,,0.11,meteohub,2013-06-08 13:11:00,
2013-06-08 09:16:00,76.8,75.6,30.05,SE,133,1.0,7.0,96,0.18,,,0.23,meteohub,2013-06-08 13:16:00,
2013-06-08 09:21:00,76.6,75.4,30.05,SE,135,4.0,7.0,96,0.23,,,0.28,meteohub,2013-06-08 13:21:00,
2013-06-08 09:26:00,76.5,75.2,30.05,South,174,2.0,8.0,96,0.27,,,0.32,meteohub,2013-06-08 13:26:00,
2013-06-08 09:31:00,76.5,75.2,30.06,SSE,168,1.0,8.0,96,0.27,,,0.32,meteohub,2013-06-08 13:31:00,
2013-06-08 09:36:00,76.6,75.4,30.06,ESE,105,4.0,8.0,96,0.27,,,0.32,meteohub,2013-06-08 13:36:00,
2013-06-08 09:41:00,76.6,75.4,30.06,SE,146,1.0,7.0,96,0.28,,,0.33,meteohub,2013-06-08 13:41:00,
2013-06-08 09:46:00,76.6,75.4,30.07,SE,132,0.0,7.0,96,0.28,,,0.33,meteohub,2013-06-08 13:46:00,
2013-06-08 09:51:00,76.6,75.4,30.07,WNW,286,2.0,4.0,96,0.30,,,0.35,meteohub,2013-06-08 13:51:00,
2013-06-08 09:56:00,76.5,75.2,30.07,South,177,0.0,4.0,96,0.49,,,0.53,meteohub,2013-06-08 13:56:00,
2013-06-08 10:01:00,76.3,75.0,30.06,ESE,123,0.0,3.0,96,0.59,,,0.64,meteohub,2013-06-08 14:01:00,
2013-06-08 10:06:00,76.3,75.0,30.06,NE,46,0.0,3.0,96,0.68,,,0.75,meteohub,2013-06-08 14:06:00,
2013-06-08 10:11:00,76.3,75.4,30.07,NE,54,0.0,1.0,97,0.69,,,0.80,meteohub,2013-06-08 14:11:00,
2013-06-08 10:16:00,76.3,75.4,30.07,NE,54,0.0,1.0,97,0.56,,,0.81,meteohub,2013-06-08 14:16:00,
2013-06-08 10:21:00,76.1,75.2,30.07,NE,54,0.0,1.0,97,0.54,,,0.82,meteohub,2013-06-08 14:21:00,
2013-06-08 10:26:00,75.9,75.0,30.07,NE,54,0.0,1.0,97,0.51,,,0.83,meteohub,2013-06-08 14:26:00,
2013-06-08 10:32:00,75.9,75.0,30.07,NE,54,0.0,1.0,97,0.51,,,0.83,meteohub,2013-06-08 14:32:00,
2013-06-08 10:37:00,75.9,75.0,30.07,NE,54,0.0,1.0,97,0.51,,,0.83,meteohub,2013-06-08 14:37:00,
2013-06-08 10:42:00,75.9,75.0,30.07,South,178,0.0,0.0,97,0.50,,,0.83,meteohub,2013-06-08 14:42:00,
2013-06-08 10:47:00,75.9,75.0,30.07,South,171,0.0,3.0,97,0.50,,,0.83,meteohub,2013-06-08 14:47:00,
2013-06-08 10:52:00,76.1,75.2,30.08,South,171,0.0,3.0,97,0.47,,,0.83,meteohub,2013-06-08 14:52:00,
2013-06-08 10:57:00,76.3,75.7,30.08,South,171,0.0,3.0,98,0.28,,,0.83,meteohub,2013-06-08 14:57:00,
2013-06-08 11:02:00,76.5,75.9,30.08,South,171,0.0,0.0,98,0.18,,,0.83,meteohub,2013-06-08 15:02:00,
2013-06-08 11:07:00,76.5,75.9,30.09,South,171,0.0,0.0,98,0.07,,,0.83,meteohub,2013-06-08 15:07:00,
2013-06-08 11:12:00,76.6,76.1,30.09,NE,48,0.0,0.0,98,0.03,,,0.83,meteohub,2013-06-08 15:12:00,
2013-06-08 11:17:00,76.8,76.3,30.08,NE,48,0.0,1.0,98,0.02,,,0.83,meteohub,2013-06-08 15:17:00,
2013-06-08 11:22:00,77.0,76.5,30.09,ESE,118,0.0,1.0,98,0.01,,,0.83,meteohub,2013-06-08 15:22:00,
2013-06-08 11:27:00,77.4,76.8,30.09,ESE,118,0.0,1.0,98,0.00,,,0.83,meteohub,2013-06-08 15:27:00,
2013-06-08 11:32:00,77.5,77.0,30.09,ESE,117,0.0,0.0,98,0.00,,,0.83,meteohub,2013-06-08 15:32:00,
2013-06-08 11:37:00,77.7,77.2,30.09,East,101,0.0,1.0,98,0.00,,,0.83,meteohub,2013-06-08 15:37:00,
2013-06-08 11:42:00,78.1,77.5,30.09,East,101,0.0,1.0,98,0.00,,,0.83,meteohub,2013-06-08 15:42:00,
2013-06-08 11:47:00,78.3,77.7,30.09,East,101,0.0,1.0,98,0.00,,,0.83,meteohub,2013-06-08 15:47:00,
2013-06-08 11:52:00,78.4,77.9,30.09,East,101,0.0,0.0,98,0.00,,,0.83,meteohub,2013-06-08 15:52:00,
2013-06-08 11:57:00,78.4,77.5,30.09,East,101,0.0,0.0,97,0.00,,,0.83,meteohub,2013-06-08 15:57:00,
2013-06-08 12:02:00,78.6,77.7,30.09,East,101,0.0,0.0,97,0.00,,,0.83,meteohub,2013-06-08 16:02:00,
2013-06-08 12:07:00,78.6,77.7,30.09,East,98,0.0,1.0,97,0.00,,,0.83,meteohub,2013-06-08 16:07:00,
2013-06-08 12:12:00,78.8,77.9,30.09,East,93,1.0,1.0,97,0.00,,,0.83,meteohub,2013-06-08 16:12:00,
2013-06-08 12:17:00,78.6,77.4,30.09,ENE,69,0.0,2.0,96,0.00,,,0.83,meteohub,2013-06-08 16:17:00,
2013-06-08 12:22:00,79.0,77.7,30.09,ENE,69,0.0,2.0,96,0.00,,,0.83,meteohub,2013-06-08 16:22:00,
2013-06-08 12:27:00,79.3,77.7,30.09,ENE,64,0.0,2.0,95,0.00,,,0.83,meteohub,2013-06-08 16:27:00,
2013-06-08 12:32:00,79.5,77.4,30.09,NNE,14,4.0,4.0,93,0.00,,,0.83,meteohub,2013-06-08 16:32:00,
2013-06-08 12:37:00,79.9,77.7,30.09,NNE,17,0.0,4.0,93,0.00,,,0.83,meteohub,2013-06-08 16:37:00,
2013-06-08 12:42:00,80.2,77.7,30.09,North,10,0.0,4.0,92,0.00,,,0.83,meteohub,2013-06-08 16:42:00,
2013-06-08 12:47:00,80.8,77.2,30.08,NNE,17,0.0,4.0,89,0.00,,,0.83,meteohub,2013-06-08 16:47:00,
2013-06-08 12:52:00,81.1,77.5,30.08,NNE,19,0.0,5.0,89,0.00,,,0.83,meteohub,2013-06-08 16:52:00,
2013-06-08 12:57:00,81.3,77.4,30.08,ENE,59,1.0,5.0,88,0.00,,,0.83,meteohub,2013-06-08 16:57:00,
2013-06-08 13:02:00,81.3,77.4,30.08,NNE,23,4.0,5.0,88,0.00,,,0.83,meteohub,2013-06-08 17:02:00,
2013-06-08 13:07:00,81.3,77.4,30.08,NNE,23,2.0,5.0,88,0.00,,,0.83,meteohub,2013-06-08 17:07:00,
2013-06-08 13:12:00,81.0,76.6,30.08,NNE,22,0.0,5.0,87,0.00,,,0.83,meteohub,2013-06-08 17:12:00,
2013-06-08 13:17:00,80.8,76.8,30.08,NNE,29,2.0,5.0,88,0.00,,,0.83,meteohub,2013-06-08 17:17:00,
2013-06-08 13:22:00,80.4,76.1,30.08,East,98,1.0,5.0,87,0.00,,,0.83,meteohub,2013-06-08 17:22:00,
2013-06-08 13:27:00,80.4,76.5,30.07,NNW,345,0.0,5.0,88,0.00,,,0.83,meteohub,2013-06-08 17:27:00,
2013-06-08 13:32:00,81.0,77.7,30.06,East,98,1.0,5.0,90,0.00,,,0.83,meteohub,2013-06-08 17:32:00,
2013-06-08 13:37:00,81.7,77.7,30.07,ESE,111,0.0,3.0,88,0.00,,,0.83,meteohub,2013-06-08 17:37:00,
2013-06-08 13:42:00,82.0,77.7,30.07,SE,132,0.0,3.0,87,0.00,,,0.83,meteohub,2013-06-08 17:42:00,
2013-06-08 13:47:00,82.9,79.0,30.06,SSE,148,1.0,3.0,88,0.00,,,0.83,meteohub,2013-06-08 17:47:00,
2013-06-08 13:53:00,82.9,77.5,30.06,East,95,2.0,3.0,84,0.00,,,0.83,meteohub,2013-06-08 17:53:00,
2013-06-08 13:58:00,82.9,77.9,30.06,NE,55,0.0,3.0,85,0.00,,,0.83,meteohub,2013-06-08 17:58:00,
2013-06-08 14:03:00,82.8,77.7,30.06,NNE,31,3.0,5.0,85,0.00,,,0.83,meteohub,2013-06-08 18:03:00,
2013-06-08 14:08:00,82.4,77.4,30.05,NE,35,0.0,5.0,85,0.00,,,0.83,meteohub,2013-06-08 18:08:00,
2013-06-08 14:13:00,82.8,78.1,30.05,SE,146,1.0,5.0,86,0.00,,,0.83,meteohub,2013-06-08 18:13:00,
2013-06-08 14:18:00,83.7,78.6,30.04,NE,54,1.0,5.0,85,0.00,,,0.83,meteohub,2013-06-08 18:18:00,
2013-06-08 14:23:00,84.6,79.2,30.04,ESE,109,1.0,5.0,84,0.00,,,0.83,meteohub,2013-06-08 18:23:00,
2013-06-08 14:28:00,84.7,79.3,30.04,SE,129,1.0,5.0,84,0.00,,,0.83,meteohub,2013-06-08 18:28:00,
2013-06-08 14:33:00,85.5,79.7,30.03,SE,131,3.0,6.0,83,0.00,,,0.83,meteohub,2013-06-08 18:33:00,
2013-06-08 14:38:00,86.0,80.2,30.03,SE,138,6.0,10.0,83,0.00,,,0.83,meteohub,2013-06-08 18:38:00,
2013-06-08 14:43:00,86.4,80.2,30.03,ENE,69,2.0,10.0,82,0.00,,,0.83,meteohub,2013-06-08 18:43:00,
2013-06-08 14:48:00,87.1,80.6,30.03,South,187,5.0,10.0,81,0.00,,,0.83,meteohub,2013-06-08 18:48:00,
2013-06-08 14:53:00,87.4,79.7,30.03,SSE,148,3.0,10.0,78,0.00,,,0.83,meteohub,2013-06-08 18:53:00,
2013-06-08 14:58:00,86.5,78.8,30.03,ESE,121,8.0,8.0,78,0.00,,,0.83,meteohub,2013-06-08 18:58:00,
2013-06-08 15:03:00,86.2,79.3,30.02,SSE,165,4.0,8.0,80,0.00,,,0.83,meteohub,2013-06-08 19:03:00,
2013-06-08 15:08:00,86.2,79.3,30.02,SW,216,6.0,11.0,80,0.00,,,0.83,meteohub,2013-06-08 19:08:00,
2013-06-08 15:13:00,85.8,78.6,30.02,SSE,150,3.0,11.0,79,0.00,,,0.83,meteohub,2013-06-08 19:13:00,
2013-06-08 15:18:00,85.8,78.6,30.02,South,189,4.0,12.0,79,0.00,,,0.83,meteohub,2013-06-08 19:18:00,
2013-06-08 15:23:00,86.0,78.8,30.01,SE,146,2.0,12.0,79,0.00,,,0.83,meteohub,2013-06-08 19:23:00,
2013-06-08 15:28:00,86.2,79.0,30.01,SSE,147,5.0,12.0,79,0.00,,,0.83,meteohub,2013-06-08 19:28:00,
2013-06-08 15:33:00,85.8,78.6,30.02,ESE,110,9.0,10.0,79,0.00,,,0.83,meteohub,2013-06-08 19:33:00,
2013-06-08 15:38:00,85.3,78.4,30.02,East,98,2.0,10.0,80,0.00,,,0.83,meteohub,2013-06-08 19:38:00,
2013-06-08 15:43:00,84.4,76.8,30.02,South,191,4.0,10.0,78,0.00,,,0.83,meteohub,2013-06-08 19:43:00,
2013-06-08 15:48:00,83.8,77.0,30.02,SE,127,1.0,10.0,80,0.00,,,0.83,meteohub,2013-06-08 19:48:00,
2013-06-08 15:53:00,83.5,77.0,30.02,SSE,157,4.0,9.0,81,0.00,,,0.83,meteohub,2013-06-08 19:53:00,
2013-06-08 15:58:00,83.3,77.2,30.02,South,184,0.0,9.0,82,0.00,,,0.83,meteohub,2013-06-08 19:58:00,
2013-06-08 16:03:00,83.1,77.4,30.03,South,178,4.0,8.0,83,0.00,,,0.83,meteohub,2013-06-08 20:03:00,
2013-06-08 16:08:00,83.1,77.4,30.03,SSE,150,0.0,7.0,83,0.00,,,0.83,meteohub,2013-06-08 20:08:00,
2013-06-08 16:13:00,82.9,77.2,30.03,SE,132,4.0,7.0,83,0.00,,,0.83,meteohub,2013-06-08 20:13:00,
2013-06-08 16:18:00,82.9,76.8,30.03,East,79,1.0,7.0,82,0.00,,,0.83,meteohub,2013-06-08 20:18:00,
2013-06-08 16:23:00,82.9,77.2,30.04,South,172,2.0,7.0,83,0.00,,,0.83,meteohub,2013-06-08 20:23:00,
2013-06-08 16:29:00,82.9,77.2,30.04,SSE,167,3.0,7.0,83,0.00,,,0.83,meteohub,2013-06-08 20:29:00,
2013-06-08 16:34:00,83.1,77.0,30.04,SSW,199,3.0,7.0,82,0.00,,,0.83,meteohub,2013-06-08 20:34:00,
2013-06-08 16:39:00,83.1,76.6,30.04,ESE,105,3.0,7.0,81,0.00,,,0.83,meteohub,2013-06-08 20:39:00,
2013-06-08 16:44:00,83.3,76.8,30.04,SE,144,0.0,7.0,81,0.00,,,0.83,meteohub,2013-06-08 20:44:00,
2013-06-08 16:49:00,83.5,76.6,30.04,South,184,1.0,6.0,80,0.00,,,0.83,meteohub,2013-06-08 20:49:00,
2013-06-08 16:54:00,83.5,76.6,30.04,SSE,163,1.0,6.0,80,0.00,,,0.83,meteohub,2013-06-08 20:54:00,
2013-06-08 16:59:00,83.7,77.2,30.04,South,174,2.0,6.0,81,0.00,,,0.83,meteohub,2013-06-08 20:59:00,
2013-06-08 17:04:00,84.0,77.2,30.04,SE,135,5.0,6.0,80,0.00,,,0.83,meteohub,2013-06-08 21:04:00,
2013-06-08 17:09:00,84.2,77.0,30.04,SSE,160,1.0,6.0,79,0.00,,,0.83,meteohub,2013-06-08 21:09:00,
2013-06-08 17:14:00,84.6,77.7,30.04,SSW,196,0.0,8.0,80,0.00,,,0.83,meteohub,2013-06-08 21:14:00,
2013-06-08 17:19:00,84.4,77.5,30.04,ESE,105,3.0,8.0,80,0.00,,,0.83,meteohub,2013-06-08 21:19:00,
2013-06-08 17:24:00,84.2,77.4,30.04,SSE,149,0.0,8.0,80,0.00,,,0.83,meteohub,2013-06-08 21:24:00,
2013-06-08 17:29:00,84.0,77.5,30.04,SE,128,3.0,8.0,81,0.00,,,0.83,meteohub,2013-06-08 21:29:00,
2013-06-08 17:34:00,83.8,77.4,30.04,ESE,107,2.0,8.0,81,0.00,,,0.83,meteohub,2013-06-08 21:34:00,
2013-06-08 17:39:00,83.7,77.5,30.04,South,186,5.0,7.0,82,0.00,,,0.83,meteohub,2013-06-08 21:39:00,
2013-06-08 17:44:00,83.5,77.4,30.04,South,176,0.0,6.0,82,0.00,,,0.83,meteohub,2013-06-08 21:44:00,
2013-06-08 17:49:00,83.5,77.7,30.04,SSW,203,5.0,6.0,83,0.00,,,0.83,meteohub,2013-06-08 21:49:00,
2013-06-08 17:54:00,83.1,77.4,30.04,South,188,3.0,6.0,83,0.00,,,0.83,meteohub,2013-06-08 21:54:00,
2013-06-08 17:59:00,82.9,77.5,30.04,SSE,157,1.0,7.0,84,0.00,,,0.83,meteohub,2013-06-08 21:59:00,
2013-06-08 18:04:00,82.9,77.5,30.04,SSE,167,0.0,7.0,84,0.00,,,0.83,meteohub,2013-06-08 22:04:00,
2013-06-08 18:09:00,82.8,77.4,30.04,SE,125,2.0,7.0,84,0.00,,,0.83,meteohub,2013-06-08 22:09:00,
2013-06-08 18:14:00,82.8,77.4,30.05,ESE,106,0.0,6.0,84,0.00,,,0.83,meteohub,2013-06-08 22:14:00,
2013-06-08 18:19:00,82.8,77.7,30.05,SSE,156,1.0,6.0,85,0.00,,,0.83,meteohub,2013-06-08 22:19:00,
2013-06-08 18:24:00,82.8,77.7,30.05,ESE,117,0.0,5.0,85,0.00,,,0.83,meteohub,2013-06-08 22:24:00,
2013-06-08 18:29:00,82.6,77.5,30.05,South,185,0.0,5.0,85,0.00,,,0.83,meteohub,2013-06-08 22:29:00,
2013-06-08 18:34:00,82.6,77.5,30.05,SE,127,0.0,5.0,85,0.00,,,0.83,meteohub,2013-06-08 22:34:00,
2013-06-08 18:39:00,82.4,77.4,30.05,South,185,1.0,5.0,85,0.00,,,0.83,meteohub,2013-06-08 22:39:00,
2013-06-08 18:44:00,82.2,76.8,30.05,South,187,3.0,5.0,84,0.00,,,0.83,meteohub,2013-06-08 22:44:00,
2013-06-08 18:49:00,82.2,77.2,30.05,South,179,0.0,4.0,85,0.00,,,0.83,meteohub,2013-06-08 22:49:00,
2013-06-08 18:54:00,82.0,77.0,30.05,ESE,113,0.0,4.0,85,0.00,,,0.83,meteohub,2013-06-08 22:54:00,
2013-06-08 18:59:00,82.0,76.6,30.05,SE,131,0.0,4.0,84,0.00,,,0.83,meteohub,2013-06-08 22:59:00,
2013-06-08 19:04:00,82.0,77.0,30.05,SE,144,0.0,4.0,85,0.00,,,0.83,meteohub,2013-06-08 23:04:00,
2013-06-08 19:09:00,82.0,77.0,30.05,East,90,0.0,4.0,85,0.00,,,0.83,meteohub,2013-06-08 23:09:00,
2013-06-08 19:14:00,81.9,76.8,30.06,SSE,148,0.0,4.0,85,0.00,,,0.83,meteohub,2013-06-08 23:14:00,
2013-06-08 19:19:00,81.9,76.8,30.06,SSE,158,0.0,2.0,85,0.00,,,0.83,meteohub,2013-06-08 23:19:00,
2013-06-08 19:24:00,81.9,76.8,30.06,SSE,147,0.0,2.0,85,0.00,,,0.83,meteohub,2013-06-08 23:24:00,
2013-06-08 19:29:00,81.7,76.6,30.06,SE,144,0.0,1.0,85,0.00,,,0.83,meteohub,2013-06-08 23:29:00,
2013-06-08 19:34:00,81.7,76.6,30.06,SE,144,0.0,3.0,85,0.00,,,0.83,meteohub,2013-06-08 23:34:00,
2013-06-08 19:39:00,81.5,76.8,30.06,SSE,156,0.0,3.0,86,0.00,,,0.83,meteohub,2013-06-08 23:39:00,
2013-06-08 19:44:00,81.3,76.6,30.06,ENE,67,0.0,3.0,86,0.00,,,0.83,meteohub,2013-06-08 23:44:00,
2013-06-08 19:49:00,81.3,76.6,30.06,SSE,156,0.0,3.0,86,0.00,,,0.83,meteohub,2013-06-08 23:49:00,
2013-06-08 19:54:00,81.1,76.5,30.06,ENE,63,0.0,3.0,86,0.00,,,0.83,meteohub,2013-06-08 23:54:00,
2013-06-08 19:59:00,81.1,76.5,30.06,ENE,63,0.0,1.0,86,0.00,,,0.83,meteohub,2013-06-08 23:59:00,
2013-06-08 20:04:00,81.0,76.6,30.06,ENE,63,0.0,1.0,87,0.00,,,0.83,meteohub,2013-06-09 00:04:00,
2013-06-08 20:09:00,81.0,76.6,30.06,ENE,71,0.0,1.0,87,0.00,,,0.00,meteohub,2013-06-09 00:09:00,
2013-06-08 20:14:00,80.8,76.5,30.06,ESE,117,0.0,1.0,87,0.00,,,0.00,meteohub,2013-06-09 00:14:00,
2013-06-08 20:19:00,80.6,76.3,30.06,ENE,67,0.0,2.0,87,0.00,,,0.00,meteohub,2013-06-09 00:19:00,
2013-06-08 20:24:00,80.4,76.1,30.06,SE,135,0.0,2.0,87,0.00,,,0.00,meteohub,2013-06-09 00:24:00,
2013-06-08 20:29:00,80.4,76.1,30.07,East,90,0.0,2.0,87,0.00,,,0.00,meteohub,2013-06-09 00:29:00,
2013-06-08 20:34:00,80.4,76.5,30.07,ESE,120,0.0,2.0,88,0.00,,,0.00,meteohub,2013-06-09 00:34:00,
2013-06-08 20:39:00,80.2,76.3,30.07,East,87,0.0,2.0,88,0.00,,,0.00,meteohub,2013-06-09 00:39:00,
2013-06-08 20:44:00,80.2,76.3,30.07,East,86,0.0,2.0,88,0.00,,,0.00,meteohub,2013-06-09 00:44:00,
2013-06-08 20:49:00,80.2,76.3,30.07,East,88,0.0,2.0,88,0.00,,,0.00,meteohub,2013-06-09 00:49:00,
2013-06-08 20:54:00,80.2,76.6,30.07,ESE,119,0.0,2.0,89,0.00,,,0.00,meteohub,2013-06-09 00:54:00,
2013-06-08 20:59:00,80.2,76.6,30.08,South,185,0.0,2.0,89,0.00,,,0.00,meteohub,2013-06-09 00:59:00,
2013-06-08 21:04:00,80.2,77.0,30.08,South,173,2.0,2.0,90,0.00,,,0.00,meteohub,2013-06-09 01:04:00,
2013-06-08 21:09:00,80.2,77.0,30.08,SSE,148,0.0,2.0,90,0.00,,,0.00,meteohub,2013-06-09 01:09:00,
2013-06-08 21:14:00,80.2,77.0,30.08,SSE,159,3.0,3.0,90,0.00,,,0.00,meteohub,2013-06-09 01:14:00,
2013-06-08 21:19:00,80.1,76.8,30.08,SSE,147,0.0,3.0,90,0.00,,,0.00,meteohub,2013-06-09 01:19:00,
2013-06-08 21:24:00,80.1,76.8,30.08,North,355,0.0,3.0,90,0.00,,,0.00,meteohub,2013-06-09 01:24:00,
2013-06-08 21:29:00,80.1,76.8,30.08,South,187,0.0,3.0,90,0.00,,,0.00,meteohub,2013-06-09 01:29:00,
2013-06-08 21:34:00,80.1,76.8,30.08,ESE,121,0.0,4.0,90,0.00,,,0.00,meteohub,2013-06-09 01:34:00,
2013-06-08 21:39:00,80.1,76.8,30.08,SSE,166,0.0,4.0,90,0.00,,,0.00,meteohub,2013-06-09 01:39:00,
2013-06-08 21:44:00,80.1,76.8,30.09,SE,130,0.0,4.0,90,0.00,,,0.00,meteohub,2013-06-09 01:44:00,
2013-06-08 21:49:00,79.9,76.6,30.09,SE,128,0.0,2.0,90,0.00,,,0.00,meteohub,2013-06-09 01:49:00,
2013-06-08 21:54:00,79.9,76.6,30.09,ESE,123,0.0,1.0,90,0.00,,,0.00,meteohub,2013-06-09 01:54:00,
2013-06-08 21:59:00,79.7,76.8,30.09,SE,125,0.0,0.0,91,0.00,,,0.00,meteohub,2013-06-09 01:59:00,
2013-06-08 22:04:00,79.7,76.8,30.09,SSE,153,0.0,0.0,91,0.00,,,0.00,meteohub,2013-06-09 02:04:00,
2013-06-08 22:09:00,79.5,76.6,30.09,ESE,116,0.0,2.0,91,0.00,,,0.00,meteohub,2013-06-09 02:09:00,
2013-06-08 22:15:00,79.5,76.6,30.09,SSE,150,0.0,2.0,91,0.00,,,0.00,meteohub,2013-06-09 02:15:00,
2013-06-08 22:20:00,79.5,76.6,30.10,SSE,152,1.0,3.0,91,0.00,,,0.00,meteohub,2013-06-09 02:20:00,
2013-06-08 22:25:00,79.5,76.3,30.10,SE,128,0.0,3.0,90,0.00,,,0.00,meteohub,2013-06-09 02:25:00,
2013-06-08 22:30:00,79.5,76.3,30.10,SE,130,0.0,3.0,90,0.00,,,0.00,meteohub,2013-06-09 02:30:00,
2013-06-08 22:35:00,79.5,75.9,30.09,ESE,123,0.0,4.0,89,0.00,,,0.00,meteohub,2013-06-09 02:35:00,
2013-06-08 22:40:00,79.5,75.9,30.10,South,188,0.0,4.0,89,0.00,,,0.00,meteohub,2013-06-09 02:40:00,
2013-06-08 22:45:00,79.7,76.1,30.09,SSE,154,0.0,4.0,89,0.00,,,0.00,meteohub,2013-06-09 02:45:00,
2013-06-08 22:50:00,79.5,75.9,30.10,South,172,0.0,4.0,89,0.00,,,0.00,meteohub,2013-06-09 02:50:00,
2013-06-08 22:55:00,79.5,75.9,30.10,SSE,147,0.0,4.0,89,0.00,,,0.00,meteohub,2013-06-09 02:55:00,
2013-06-08 23:00:00,79.7,76.5,30.09,SE,125,0.0,3.0,90,0.00,,,0.00,meteohub,2013-06-09 03:00:00,
2013-06-08 23:05:00,79.7,76.5,30.09,SSE,151,0.0,4.0,90,0.00,,,0.00,meteohub,2013-06-09 03:05:00,
2013-06-08 23:10:00,79.7,76.5,30.09,SE,136,0.0,4.0,90,0.00,,,0.00,meteohub,2013-06-09 03:10:00,
2013-06-08 23:15:00,79.7,76.5,30.10,NE,38,0.0,4.0,90,0.00,,,0.00,meteohub,2013-06-09 03:15:00,
2013-06-08 23:20:00,79.9,76.6,30.10,East,88,0.0,3.0,90,0.00,,,0.00,meteohub,2013-06-09 03:20:00,
2013-06-08 23:25:00,79.5,75.9,30.10,South,171,3.0,5.0,89,0.02,,,0.02,meteohub,2013-06-09 03:25:00,
2013-06-08 23:30:00,78.4,73.9,30.10,SSE,147,0.0,6.0,86,0.07,,,0.07,meteohub,2013-06-09 03:30:00,
2013-06-08 23:35:00,77.5,74.1,30.10,SSE,155,0.0,6.0,89,0.07,,,0.07,meteohub,2013-06-09 03:35:00,
2013-06-08 23:40:00,77.2,74.3,30.11,ESE,109,0.0,6.0,91,0.07,,,0.07,meteohub,2013-06-09 03:40:00,
2013-06-08 23:45:00,77.2,75.0,30.10,ESE,106,0.0,2.0,93,0.07,,,0.07,meteohub,2013-06-09 03:45:00,
2013-06-08 23:50:00,77.2,75.4,30.11,SE,144,0.0,3.0,94,0.07,,,0.07,meteohub,2013-06-09 03:50:00,
2013-06-08 23:55:00,77.4,75.6,30.11,East,101,0.0,3.0,94,0.07,,,0.07,meteohub,2013-06-09 03:55:00,